sensor_id;sensor_type;location;lat;lon;timestamp;pressure;altitude;pressure_sealevel;temperature
75658;BMP280;64255;49.892;17.884;2023-06-22T05:02:33;99096.97;;;23.16
75658;BMP280;64255;49.892;17.884;2023-06-22T05:05:19;99097.00;;;23.47
75658;BMP280;64255;49.892;17.884;2023-06-22T05:08:06;99093.53;;;24.16
75658;BMP280;64255;49.892;17.884;2023-06-22T05:10:52;99087.81;;;24.37
75658;BMP280;64255;49.892;17.884;2023-06-22T05:13:39;99084.03;;;24.73
75658;BMP280;64255;49.892;17.884;2023-06-22T05:16:25;99086.72;;;24.40
75658;BMP280;64255;49.892;17.884;2023-06-22T05:19:12;99086.88;;;25.41
75658;BMP280;64255;49.892;17.884;2023-06-22T05:21:59;99089.72;;;25.51
75658;BMP280;64255;49.892;17.884;2023-06-22T05:24:46;99091.28;;;25.61
75658;BMP280;64255;49.892;17.884;2023-06-22T05:27:33;99089.63;;;26.19
75658;BMP280;64255;49.892;17.884;2023-06-22T05:30:19;99088.38;;;26.74
75658;BMP280;64255;49.892;17.884;2023-06-22T05:33:06;99088.84;;;26.80
75658;BMP280;64255;49.892;17.884;2023-06-22T05:35:52;99088.09;;;26.70
75658;BMP280;64255;49.892;17.884;2023-06-22T05:38:39;99095.47;;;27.04
75658;BMP280;64255;49.892;17.884;2023-06-22T05:41:26;99098.28;;;26.87
75658;BMP280;64255;49.892;17.884;2023-06-22T05:44:13;99098.88;;;27.32
75658;BMP280;64255;49.892;17.884;2023-06-22T05:46:59;99099.84;;;26.53
75658;BMP280;64255;49.892;17.884;2023-06-22T05:49:46;99092.66;;;26.85
75658;BMP280;64255;49.892;17.884;2023-06-22T05:52:33;99105.16;;;27.05
75658;BMP280;64255;49.892;17.884;2023-06-22T05:55:19;99098.81;;;26.48
75658;BMP280;64255;49.892;17.884;2023-06-22T05:58:06;99100.81;;;26.75
75658;BMP280;64255;49.892;17.884;2023-06-22T06:00:52;99109.69;;;26.83
75658;BMP280;64255;49.892;17.884;2023-06-22T06:03:39;99106.13;;;27.27
75658;BMP280;64255;49.892;17.884;2023-06-22T06:06:26;99121.44;;;27.68
75658;BMP280;64255;49.892;17.884;2023-06-22T06:09:16;99134.94;;;28.02
75658;BMP280;64255;49.892;17.884;2023-06-22T06:12:03;99127.06;;;28.28
75658;BMP280;64255;49.892;17.884;2023-06-22T06:14:49;99129.41;;;27.93
75658;BMP280;64255;49.892;17.884;2023-06-22T06:17:40;99128.19;;;28.64
75658;BMP280;64255;49.892;17.884;2023-06-22T06:20:31;99130.72;;;28.72
75658;BMP280;64255;49.892;17.884;2023-06-22T06:23:18;99131.47;;;28.72
75658;BMP280;64255;49.892;17.884;2023-06-22T06:26:04;99136.31;;;28.52
75658;BMP280;64255;49.892;17.884;2023-06-22T06:28:51;99140.84;;;28.28
75658;BMP280;64255;49.892;17.884;2023-06-22T06:31:37;99128.31;;;28.56
75658;BMP280;64255;49.892;17.884;2023-06-22T06:34:24;99122.66;;;28.64
75658;BMP280;64255;49.892;17.884;2023-06-22T06:37:10;99135.81;;;28.75
75658;BMP280;64255;49.892;17.884;2023-06-22T06:39:57;99141.81;;;29.34
75658;BMP280;64255;49.892;17.884;2023-06-22T06:42:47;99121.22;;;28.53
75658;BMP280;64255;49.892;17.884;2023-06-22T06:45:34;99117.16;;;29.05
75658;BMP280;64255;49.892;17.884;2023-06-22T06:48:21;99120.31;;;29.33
75658;BMP280;64255;49.892;17.884;2023-06-22T06:51:07;99129.03;;;29.61
75658;BMP280;64255;49.892;17.884;2023-06-22T06:53:53;99123.34;;;29.37
75658;BMP280;64255;49.892;17.884;2023-06-22T06:56:40;99113.22;;;29.94
75658;BMP280;64255;49.892;17.884;2023-06-22T06:59:26;99119.38;;;29.50
75658;BMP280;64255;49.892;17.884;2023-06-22T07:02:14;99114.91;;;30.00
75658;BMP280;64255;49.892;17.884;2023-06-22T07:05:00;99125.69;;;28.68
75658;BMP280;64255;49.892;17.884;2023-06-22T07:07:47;99127.78;;;28.19
75658;BMP280;64255;49.892;17.884;2023-06-22T07:10:33;99127.09;;;28.89
75658;BMP280;64255;49.892;17.884;2023-06-22T07:13:20;99123.50;;;29.08
75658;BMP280;64255;49.892;17.884;2023-06-22T07:16:06;99127.03;;;29.73
75658;BMP280;64255;49.892;17.884;2023-06-22T07:18:54;99122.53;;;29.78
75658;BMP280;64255;49.892;17.884;2023-06-22T07:21:40;99129.53;;;30.36
75658;BMP280;64255;49.892;17.884;2023-06-22T07:24:27;99136.25;;;29.13
75658;BMP280;64255;49.892;17.884;2023-06-22T07:27:13;99137.34;;;28.37
75658;BMP280;64255;49.892;17.884;2023-06-22T07:30:00;99132.53;;;29.08
75658;BMP280;64255;49.892;17.884;2023-06-22T07:32:46;99138.22;;;28.30
75658;BMP280;64255;49.892;17.884;2023-06-22T07:35:33;99141.06;;;29.12
75658;BMP280;64255;49.892;17.884;2023-06-22T07:38:19;99141.78;;;29.03
75658;BMP280;64255;49.892;17.884;2023-06-22T07:41:06;99135.13;;;29.06
75658;BMP280;64255;49.892;17.884;2023-06-22T07:43:52;99129.06;;;29.29
75658;BMP280;64255;49.892;17.884;2023-06-22T07:46:39;99130.44;;;29.40
75658;BMP280;64255;49.892;17.884;2023-06-22T07:49:25;99146.16;;;29.59
75658;BMP280;64255;49.892;17.884;2023-06-22T07:52:12;99146.09;;;29.69
75658;BMP280;64255;49.892;17.884;2023-06-22T07:54:58;99136.50;;;30.25
75658;BMP280;64255;49.892;17.884;2023-06-22T07:57:48;99145.97;;;30.22
75658;BMP280;64255;49.892;17.884;2023-06-22T08:00:35;99145.09;;;30.19
75658;BMP280;64255;49.892;17.884;2023-06-22T08:03:22;99144.94;;;29.84
75658;BMP280;64255;49.892;17.884;2023-06-22T08:06:09;99149.84;;;29.52
75658;BMP280;64255;49.892;17.884;2023-06-22T08:08:55;99156.72;;;29.84
75658;BMP280;64255;49.892;17.884;2023-06-22T08:11:42;99152.91;;;28.84
75658;BMP280;64255;49.892;17.884;2023-06-22T08:14:30;99154.63;;;29.94
75658;BMP280;64255;49.892;17.884;2023-06-22T08:17:16;99155.88;;;29.07
75658;BMP280;64255;49.892;17.884;2023-06-22T08:20:04;99165.56;;;29.40
75658;BMP280;64255;49.892;17.884;2023-06-22T08:22:50;99161.91;;;30.23
75658;BMP280;64255;49.892;17.884;2023-06-22T08:25:37;99154.22;;;28.73
75658;BMP280;64255;49.892;17.884;2023-06-22T08:28:23;99157.09;;;29.26
75658;BMP280;64255;49.892;17.884;2023-06-22T08:31:10;99162.97;;;30.63
75658;BMP280;64255;49.892;17.884;2023-06-22T08:33:57;99163.75;;;29.97
75658;BMP280;64255;49.892;17.884;2023-06-22T08:36:43;99162.03;;;29.70
75658;BMP280;64255;49.892;17.884;2023-06-22T08:39:30;99156.44;;;26.93
75658;BMP280;64255;49.892;17.884;2023-06-22T08:42:16;99149.94;;;27.25
75658;BMP280;64255;49.892;17.884;2023-06-22T08:45:03;99155.31;;;27.33
75658;BMP280;64255;49.892;17.884;2023-06-22T08:47:50;99155.19;;;27.04
75658;BMP280;64255;49.892;17.884;2023-06-22T08:50:37;99154.50;;;27.13
75658;BMP280;64255;49.892;17.884;2023-06-22T08:53:23;99143.75;;;26.98
75658;BMP280;64255;49.892;17.884;2023-06-22T08:56:10;99135.50;;;27.25
75658;BMP280;64255;49.892;17.884;2023-06-22T08:58:56;99125.41;;;27.00
75658;BMP280;64255;49.892;17.884;2023-06-22T09:01:42;99129.44;;;27.46
75658;BMP280;64255;49.892;17.884;2023-06-22T09:04:29;99132.16;;;27.73
75658;BMP280;64255;49.892;17.884;2023-06-22T09:07:15;99129.03;;;28.57
75658;BMP280;64255;49.892;17.884;2023-06-22T09:10:02;99122.88;;;27.98
75658;BMP280;64255;49.892;17.884;2023-06-22T09:12:49;99125.97;;;28.63
75658;BMP280;64255;49.892;17.884;2023-06-22T09:15:35;99130.69;;;28.21
75658;BMP280;64255;49.892;17.884;2023-06-22T09:18:22;99123.41;;;28.55
75658;BMP280;64255;49.892;17.884;2023-06-22T09:21:08;99117.69;;;27.92
75658;BMP280;64255;49.892;17.884;2023-06-22T09:23:55;99122.44;;;28.21
75658;BMP280;64255;49.892;17.884;2023-06-22T09:26:42;99125.94;;;28.12
75658;BMP280;64255;49.892;17.884;2023-06-22T09:29:28;99128.38;;;28.08
75658;BMP280;64255;49.892;17.884;2023-06-22T09:32:15;99129.41;;;27.93
75658;BMP280;64255;49.892;17.884;2023-06-22T09:35:05;99115.81;;;28.04
75658;BMP280;64255;49.892;17.884;2023-06-22T09:37:52;99115.63;;;27.83
75658;BMP280;64255;49.892;17.884;2023-06-22T09:40:38;99118.25;;;28.00
75658;BMP280;64255;49.892;17.884;2023-06-22T09:43:25;99119.09;;;27.74
75658;BMP280;64255;49.892;17.884;2023-06-22T09:46:11;99126.31;;;28.37
75658;BMP280;64255;49.892;17.884;2023-06-22T09:48:58;99118.06;;;28.37
75658;BMP280;64255;49.892;17.884;2023-06-22T09:51:44;99111.41;;;28.40
75658;BMP280;64255;49.892;17.884;2023-06-22T09:54:31;99115.03;;;28.53
75658;BMP280;64255;49.892;17.884;2023-06-22T09:57:17;99112.16;;;28.12
75658;BMP280;64255;49.892;17.884;2023-06-22T10:00:04;99116.28;;;28.61
75658;BMP280;64255;49.892;17.884;2023-06-22T10:02:51;99107.53;;;27.85
75658;BMP280;64255;49.892;17.884;2023-06-22T10:05:38;99100.25;;;28.19
75658;BMP280;64255;49.892;17.884;2023-06-22T10:08:24;99100.09;;;28.46
75658;BMP280;64255;49.892;17.884;2023-06-22T10:11:11;99097.06;;;28.32
75658;BMP280;64255;49.892;17.884;2023-06-22T10:13:57;99112.91;;;28.02
75658;BMP280;64255;49.892;17.884;2023-06-22T10:16:44;99098.84;;;28.69
75658;BMP280;64255;49.892;17.884;2023-06-22T10:19:30;99090.75;;;28.71
75658;BMP280;64255;49.892;17.884;2023-06-22T10:22:17;99094.84;;;28.50
75658;BMP280;64255;49.892;17.884;2023-06-22T10:25:04;99094.75;;;28.38
75658;BMP280;64255;49.892;17.884;2023-06-22T10:27:51;99091.31;;;28.18
75658;BMP280;64255;49.892;17.884;2023-06-22T10:30:38;99087.34;;;28.41
75658;BMP280;64255;49.892;17.884;2023-06-22T10:33:25;99086.78;;;27.84
75658;BMP280;64255;49.892;17.884;2023-06-22T10:36:11;99086.66;;;27.82
75658;BMP280;64255;49.892;17.884;2023-06-22T10:38:58;99074.31;;;28.12
75658;BMP280;64255;49.892;17.884;2023-06-22T10:41:44;99079.16;;;28.21
75658;BMP280;64255;49.892;17.884;2023-06-22T10:44:31;99078.81;;;28.37
75658;BMP280;64255;49.892;17.884;2023-06-22T10:47:17;99079.53;;;28.37
75658;BMP280;64255;49.892;17.884;2023-06-22T10:50:05;99088.38;;;28.26
75658;BMP280;64255;49.892;17.884;2023-06-22T10:52:51;99074.88;;;28.50
75658;BMP280;64255;49.892;17.884;2023-06-22T10:55:38;99081.19;;;28.11
75658;BMP280;64255;49.892;17.884;2023-06-22T10:58:25;99078.97;;;28.00
75658;BMP280;64255;49.892;17.884;2023-06-22T11:01:11;99083.19;;;27.81
75658;BMP280;64255;49.892;17.884;2023-06-22T11:03:58;99081.72;;;28.10
75658;BMP280;64255;49.892;17.884;2023-06-22T11:06:45;99076.66;;;28.16
75658;BMP280;64255;49.892;17.884;2023-06-22T11:09:31;99070.22;;;28.52
75658;BMP280;64255;49.892;17.884;2023-06-22T11:12:18;99073.31;;;28.27
75658;BMP280;64255;49.892;17.884;2023-06-22T11:15:05;99072.16;;;28.30
75658;BMP280;64255;49.892;17.884;2023-06-22T11:17:51;99068.03;;;28.51
75658;BMP280;64255;49.892;17.884;2023-06-22T11:20:38;99064.31;;;28.36
75658;BMP280;64255;49.892;17.884;2023-06-22T11:23:24;99057.13;;;28.12
75658;BMP280;64255;49.892;17.884;2023-06-22T11:26:11;99061.16;;;28.11
75658;BMP280;64255;49.892;17.884;2023-06-22T11:28:58;99049.63;;;28.02
75658;BMP280;64255;49.892;17.884;2023-06-22T11:31:45;99052.16;;;28.30
75658;BMP280;64255;49.892;17.884;2023-06-22T11:34:32;99050.25;;;28.32
75658;BMP280;64255;49.892;17.884;2023-06-22T11:37:18;99046.88;;;28.43
75658;BMP280;64255;49.892;17.884;2023-06-22T11:40:05;99049.97;;;28.28
75658;BMP280;64255;49.892;17.884;2023-06-22T11:42:52;99037.69;;;28.60
75658;BMP280;64255;49.892;17.884;2023-06-22T11:45:39;99038.38;;;28.39
75658;BMP280;64255;49.892;17.884;2023-06-22T11:48:25;99037.84;;;28.12
75658;BMP280;64255;49.892;17.884;2023-06-22T11:51:12;99033.94;;;28.15
75658;BMP280;64255;49.892;17.884;2023-06-22T11:53:58;99020.53;;;28.40
75658;BMP280;64255;49.892;17.884;2023-06-22T11:56:45;99021.72;;;28.69
75658;BMP280;64255;49.892;17.884;2023-06-22T11:59:31;99007.50;;;28.72
75658;BMP280;64255;49.892;17.884;2023-06-22T12:02:18;99008.28;;;28.63
75658;BMP280;64255;49.892;17.884;2023-06-22T12:05:05;99004.00;;;28.40
75658;BMP280;64255;49.892;17.884;2023-06-22T12:07:53;99009.19;;;28.56
75658;BMP280;64255;49.892;17.884;2023-06-22T12:10:40;99003.34;;;28.93
75658;BMP280;64255;49.892;17.884;2023-06-22T12:13:26;99001.56;;;28.97
75658;BMP280;64255;49.892;17.884;2023-06-22T12:16:13;99005.69;;;28.65
75658;BMP280;64255;49.892;17.884;2023-06-22T12:19:00;99002.09;;;28.53
75658;BMP280;64255;49.892;17.884;2023-06-22T12:21:46;98987.94;;;28.37
75658;BMP280;64255;49.892;17.884;2023-06-22T12:24:33;98980.91;;;28.87
75658;BMP280;64255;49.892;17.884;2023-06-22T12:27:19;98985.22;;;28.90
75658;BMP280;64255;49.892;17.884;2023-06-22T12:30:06;98983.69;;;28.55
75658;BMP280;64255;49.892;17.884;2023-06-22T12:32:52;98983.66;;;28.65
75658;BMP280;64255;49.892;17.884;2023-06-22T12:35:39;98983.66;;;28.87
75658;BMP280;64255;49.892;17.884;2023-06-22T12:38:25;98977.66;;;28.69
75658;BMP280;64255;49.892;17.884;2023-06-22T12:41:12;98968.75;;;28.80
75658;BMP280;64255;49.892;17.884;2023-06-22T12:43:58;98969.03;;;29.06
75658;BMP280;64255;49.892;17.884;2023-06-22T12:46:45;98969.00;;;28.84
75658;BMP280;64255;49.892;17.884;2023-06-22T12:49:32;98966.44;;;29.41
75658;BMP280;64255;49.892;17.884;2023-06-22T12:52:18;98972.00;;;29.65
75658;BMP280;64255;49.892;17.884;2023-06-22T12:55:05;98968.16;;;29.58
75658;BMP280;64255;49.892;17.884;2023-06-22T12:57:52;98963.81;;;28.78
75658;BMP280;64255;49.892;17.884;2023-06-22T13:00:39;98960.97;;;28.98
75658;BMP280;64255;49.892;17.884;2023-06-22T13:03:25;98957.53;;;29.09
75658;BMP280;64255;49.892;17.884;2023-06-22T13:06:12;98952.16;;;29.11
75658;BMP280;64255;49.892;17.884;2023-06-22T13:08:58;98945.94;;;28.89
75658;BMP280;64255;49.892;17.884;2023-06-22T13:11:45;98962.13;;;29.16
75658;BMP280;64255;49.892;17.884;2023-06-22T13:14:32;98951.50;;;28.79
75658;BMP280;64255;49.892;17.884;2023-06-22T13:17:18;98947.09;;;29.08
75658;BMP280;64255;49.892;17.884;2023-06-22T13:20:06;98939.72;;;28.89
75658;BMP280;64255;49.892;17.884;2023-06-22T13:22:53;98948.03;;;28.79
75658;BMP280;64255;49.892;17.884;2023-06-22T13:25:39;98940.22;;;28.97
75658;BMP280;64255;49.892;17.884;2023-06-22T13:28:26;98957.41;;;28.86
75658;BMP280;64255;49.892;17.884;2023-06-22T13:31:12;98952.41;;;28.94
75658;BMP280;64255;49.892;17.884;2023-06-22T13:33:59;98933.44;;;28.67
75658;BMP280;64255;49.892;17.884;2023-06-22T13:36:46;98935.88;;;28.94
75658;BMP280;64255;49.892;17.884;2023-06-22T13:39:32;98932.53;;;28.95
75658;BMP280;64255;49.892;17.884;2023-06-22T13:42:19;98932.53;;;29.17
75658;BMP280;64255;49.892;17.884;2023-06-22T13:45:07;98937.44;;;29.18
75658;BMP280;64255;49.892;17.884;2023-06-22T13:47:53;98929.28;;;29.21
75658;BMP280;64255;49.892;17.884;2023-06-22T13:50:40;98927.06;;;29.29
75658;BMP280;64255;49.892;17.884;2023-06-22T13:53:26;98928.72;;;28.79
75658;BMP280;64255;49.892;17.884;2023-06-22T13:56:13;98921.63;;;28.97
75658;BMP280;64255;49.892;17.884;2023-06-22T13:58:59;98922.28;;;29.08
75658;BMP280;64255;49.892;17.884;2023-06-22T14:01:46;98925.91;;;29.10
75658;BMP280;64255;49.892;17.884;2023-06-22T14:04:33;98919.28;;;29.37
75658;BMP280;64255;49.892;17.884;2023-06-22T14:07:19;98909.38;;;29.55
75658;BMP280;64255;49.892;17.884;2023-06-22T14:10:06;98916.06;;;29.41
75658;BMP280;64255;49.892;17.884;2023-06-22T14:12:53;98914.44;;;29.26
75658;BMP280;64255;49.892;17.884;2023-06-22T14:15:39;98910.25;;;29.25
75658;BMP280;64255;49.892;17.884;2023-06-22T14:18:26;98911.75;;;29.49
75658;BMP280;64255;49.892;17.884;2023-06-22T14:21:12;98906.34;;;29.40
75658;BMP280;64255;49.892;17.884;2023-06-22T14:23:59;98916.75;;;29.74
75658;BMP280;64255;49.892;17.884;2023-06-22T14:26:45;98901.16;;;30.03
75658;BMP280;64255;49.892;17.884;2023-06-22T14:29:32;98903.53;;;29.85
75658;BMP280;64255;49.892;17.884;2023-06-22T14:32:18;98897.41;;;29.63
75658;BMP280;64255;49.892;17.884;2023-06-22T14:35:05;98907.50;;;29.70
75658;BMP280;64255;49.892;17.884;2023-06-22T14:37:52;98890.78;;;29.44
75658;BMP280;64255;49.892;17.884;2023-06-22T14:40:38;98895.59;;;29.55
75658;BMP280;64255;49.892;17.884;2023-06-22T14:43:25;98889.81;;;29.40
75658;BMP280;64255;49.892;17.884;2023-06-22T14:46:11;98893.59;;;29.23
75658;BMP280;64255;49.892;17.884;2023-06-22T14:48:58;98883.41;;;29.37
75658;BMP280;64255;49.892;17.884;2023-06-22T14:51:44;98885.16;;;29.66
75658;BMP280;64255;49.892;17.884;2023-06-22T14:54:31;98880.50;;;30.16
75658;BMP280;64255;49.892;17.884;2023-06-22T14:57:18;98881.31;;;30.42
75658;BMP280;64255;49.892;17.884;2023-06-22T15:00:05;98888.66;;;29.66
75658;BMP280;64255;49.892;17.884;2023-06-22T15:02:52;98888.78;;;29.68
75658;BMP280;64255;49.892;17.884;2023-06-22T15:05:38;98885.38;;;29.46
75658;BMP280;64255;49.892;17.884;2023-06-22T15:08:25;98880.63;;;29.59
75658;BMP280;64255;49.892;17.884;2023-06-22T15:11:12;98881.53;;;29.51
75658;BMP280;64255;49.892;17.884;2023-06-22T15:13:59;98872.34;;;29.59
75658;BMP280;64255;49.892;17.884;2023-06-22T15:16:45;98873.44;;;29.89
75658;BMP280;64255;49.892;17.884;2023-06-22T15:19:32;98870.78;;;29.79
75658;BMP280;64255;49.892;17.884;2023-06-22T15:22:18;98860.94;;;29.52
75658;BMP280;64255;49.892;17.884;2023-06-22T15:25:05;98857.41;;;29.40
75658;BMP280;64255;49.892;17.884;2023-06-22T15:27:52;98847.84;;;29.41
75658;BMP280;64255;49.892;17.884;2023-06-22T15:30:39;98849.88;;;29.41
75658;BMP280;64255;49.892;17.884;2023-06-22T15:33:26;98850.72;;;29.55
75658;BMP280;64255;49.892;17.884;2023-06-22T15:36:12;98845.81;;;29.53
75658;BMP280;64255;49.892;17.884;2023-06-22T15:38:59;98846.09;;;29.12
75658;BMP280;64255;49.892;17.884;2023-06-22T15:41:45;98840.72;;;29.14
75658;BMP280;64255;49.892;17.884;2023-06-22T15:44:32;98846.38;;;29.40
75658;BMP280;64255;49.892;17.884;2023-06-22T15:47:18;98851.84;;;29.16
75658;BMP280;64255;49.892;17.884;2023-06-22T15:50:05;98843.41;;;29.03
75658;BMP280;64255;49.892;17.884;2023-06-22T15:52:52;98845.34;;;29.12
75658;BMP280;64255;49.892;17.884;2023-06-22T15:55:38;98830.88;;;29.11
75658;BMP280;64255;49.892;17.884;2023-06-22T15:58:25;98836.94;;;28.98
75658;BMP280;64255;49.892;17.884;2023-06-22T16:01:11;98830.25;;;28.79
75658;BMP280;64255;49.892;17.884;2023-06-22T16:03:58;98833.88;;;28.82
75658;BMP280;64255;49.892;17.884;2023-06-22T16:06:44;98833.97;;;29.06
75658;BMP280;64255;49.892;17.884;2023-06-22T16:09:31;98824.28;;;29.05
75658;BMP280;64255;49.892;17.884;2023-06-22T16:12:17;98828.22;;;29.02
75658;BMP280;64255;49.892;17.884;2023-06-22T16:15:04;98827.91;;;29.31
75658;BMP280;64255;49.892;17.884;2023-06-22T16:17:51;98825.81;;;29.08
75658;BMP280;64255;49.892;17.884;2023-06-22T16:20:38;98821.91;;;29.23
75658;BMP280;64255;49.892;17.884;2023-06-22T16:23:25;98819.31;;;29.03
75658;BMP280;64255;49.892;17.884;2023-06-22T16:26:11;98814.38;;;28.90
75658;BMP280;64255;49.892;17.884;2023-06-22T16:28:58;98817.59;;;29.20
75658;BMP280;64255;49.892;17.884;2023-06-22T16:31:44;98814.22;;;29.21
75658;BMP280;64255;49.892;17.884;2023-06-22T16:34:31;98810.53;;;28.83
75658;BMP280;64255;49.892;17.884;2023-06-22T16:37:17;98810.69;;;28.97
75658;BMP280;64255;49.892;17.884;2023-06-22T16:40:05;98813.19;;;28.93
75658;BMP280;64255;49.892;17.884;2023-06-22T16:42:52;98813.63;;;28.77
75658;BMP280;64255;49.892;17.884;2023-06-22T16:45:38;98810.00;;;28.53
75658;BMP280;64255;49.892;17.884;2023-06-22T16:48:25;98794.59;;;28.60
75658;BMP280;64255;49.892;17.884;2023-06-22T16:51:12;98792.13;;;28.42
75658;BMP280;64255;49.892;17.884;2023-06-22T16:53:59;98797.41;;;28.50
75658;BMP280;64255;49.892;17.884;2023-06-22T16:56:46;98796.84;;;28.52
75658;BMP280;64255;49.892;17.884;2023-06-22T16:59:33;98795.66;;;28.33
